Terminal Aerodrome Forecast
Issued by NWS Paducah, KY

Home | Current Version | Previous Version | Text Only | Print | Product List | Glossary On
Versions: 1 2 3 4 5 6 7 8 9 10 11 12 13 14 15 16 17 18 19 20 21 22 23
403
FTUS43 KPAH 271539 AAC
TAFEVV
TAF AMD
KEVV 271539Z 2716/2812 15006KT P6SM SCT020
      TEMPO 2716/2720 BKN015
     FM280100 VRB03KT 6SM BR VCSH SCT040 BKN150 PROB30 2806/2812 TS
      BKN035CB=

USA.gov is the U.S. government's official web portal to all federal, state and local government web resources and services.